Time;durP1;ratioP1;P1;durP2;ratioP2;P2;SDS_P1;SDS_P2;PMS_P1;PMS_P2;Temp;Humidity;BMP_temperature;BMP_pressure;BME280_temperature;BME280_humidity;BME280_pressure;Samples;Min_cycle;Max_cycle;Signal;HPM_P1;HPM_P2
2021/09/07 00:01:02;;;;;;;22.20;19.37;;;15.80;99.90;;;;;;5112853;28;20898;-84
2021/09/07 00:03:27;;;;;;;21.88;19.58;;;15.80;99.90;;;;;;5113185;28;20726;-85
2021/09/07 00:05:53;;;;;;;20.93;18.73;;;15.90;99.90;;;;;;5112800;28;20371;-83
2021/09/07 00:08:18;;;;;;;21.42;19.23;;;15.90;99.90;;;;;;5112765;28;20367;-84
2021/09/07 00:10:44;;;;;;;23.00;19.33;;;15.90;99.90;;;;;;5094702;28;20872;-84
2021/09/07 00:13:10;;;;;;;21.52;19.27;;;15.80;99.90;;;;;;5094560;28;20379;-82
2021/09/07 00:15:35;;;;;;;21.90;19.60;;;15.80;99.90;;;;;;5112874;28;20378;-84
2021/09/07 00:18:01;;;;;;;21.58;19.27;;;15.80;99.90;;;;;;5112814;28;20390;-83
2021/09/07 00:20:26;;;;;;;21.55;19.25;;;15.80;99.90;;;;;;5094726;28;20402;-84
2021/09/07 00:22:52;;;;;;;23.20;20.70;;;15.80;99.90;;;;;;5113029;28;20394;-85
2021/09/07 00:25:18;;;;;;;22.50;20.10;;;15.70;99.90;;;;;;5116893;28;20408;-84
2021/09/07 00:27:43;;;;;;;21.63;19.33;;;15.70;99.90;;;;;;5117049;28;20385;-84
2021/09/07 00:30:09;;;;;;;23.38;20.30;;;15.60;99.90;;;;;;5117058;28;20374;-85
2021/09/07 00:32:35;;;;;;;21.40;19.10;;;15.60;99.90;;;;;;5098629;28;20371;-84
2021/09/07 00:35:01;;;;;;;24.63;19.83;;;15.50;99.90;;;;;;5116719;28;20378;-83
2021/09/07 00:37:26;;;;;;;22.00;19.60;;;15.50;99.90;;;;;;5099113;28;20375;-84
2021/09/07 00:39:52;;;;;;;22.30;19.90;;;15.50;99.90;;;;;;5099372;28;20382;-85
2021/09/07 00:42:18;;;;;;;22.97;20.47;;;15.40;99.90;;;;;;5117372;28;20411;-85
2021/09/07 00:44:43;;;;;;;25.05;21.50;;;15.40;99.90;;;;;;5116804;28;20379;-85
2021/09/07 00:47:09;;;;;;;25.70;20.60;;;15.30;99.90;;;;;;5115987;28;20755;-84
2021/09/07 00:49:38;;;;;;;26.02;22.23;;;15.20;99.90;;;;;;5116521;28;20409;-84
2021/09/07 00:52:05;;;;;;;25.23;21.45;;;15.20;99.90;;;;;;5097216;28;20387;-85
2021/09/07 00:54:36;;;;;;;26.55;21.60;;;15.10;99.90;;;;;;5116794;28;20394;-83
2021/09/07 00:57:04;;;;;;;26.30;21.25;;;15.10;99.90;;;;;;5097303;28;20379;-83
2021/09/07 00:59:32;;;;;;;26.85;22.75;;;15.00;99.90;;;;;;5114710;28;20913;-86
2021/09/07 01:01:58;;;;;;;26.08;22.50;;;15.00;99.90;;;;;;5118791;28;20493;-83
2021/09/07 01:04:24;;;;;;;26.15;22.88;;;15.00;99.90;;;;;;5100299;28;20452;-84
2021/09/07 01:06:50;;;;;;;27.52;22.63;;;15.00;99.90;;;;;;5096740;28;20370;-86
2021/09/07 01:09:16;;;;;;;23.73;21.00;;;14.90;99.90;;;;;;5096862;28;20382;-85
2021/09/07 01:11:41;;;;;;;23.10;20.60;;;14.90;99.90;;;;;;5114755;28;20498;-85
2021/09/07 01:14:07;;;;;;;27.30;22.38;;;14.80;99.90;;;;;;5096382;28;20379;-85
2021/09/07 01:16:33;;;;;;;25.65;22.70;;;14.70;99.90;;;;;;5114997;28;20370;-85
2021/09/07 01:18:59;;;;;;;27.43;22.73;;;14.70;99.90;;;;;;5114312;28;20382;-85
2021/09/07 01:21:26;;;;;;;26.13;23.08;;;14.60;99.90;;;;;;5095351;28;20493;-85
2021/09/07 01:23:52;;;;;;;26.50;23.05;;;14.60;99.90;;;;;;5113492;28;20378;-85
2021/09/07 01:26:20;;;;;;;27.77;22.47;;;14.60;99.90;;;;;;5095115;28;20379;-85
2021/09/07 01:28:47;;;;;;;23.15;20.35;;;14.60;99.90;;;;;;5113244;28;20400;-84
2021/09/07 01:31:13;;;;;;;25.48;21.98;;;14.60;99.90;;;;;;5095133;28;20939;-84
2021/09/07 01:33:39;;;;;;;27.67;23.83;;;14.50;99.90;;;;;;5113506;28;20508;-84
2021/09/07 01:36:05;;;;;;;30.00;24.42;;;14.50;99.90;;;;;;5094829;28;20366;-85
2021/09/07 01:38:32;;;;;;;28.77;23.67;;;14.60;99.90;;;;;;5095122;28;20813;-83
2021/09/07 01:40:59;;;;;;;26.60;22.80;;;14.50;99.90;;;;;;5112947;28;20394;-85
2021/09/07 01:43:24;;;;;;;26.85;22.70;;;14.50;99.90;;;;;;5094736;28;20379;-84
2021/09/07 01:45:52;;;;;;;26.58;23.27;;;14.50;99.90;;;;;;5112711;28;20374;-83
2021/09/07 01:48:24;;;;;;;26.77;22.92;;;14.40;99.90;;;;;;5094605;28;20732;-86
2021/09/07 01:50:49;;;;;;;26.25;22.15;;;14.40;99.90;;;;;;5112803;28;20370;-84
2021/09/07 01:53:15;;;;;;;30.60;24.90;;;14.40;99.90;;;;;;5112600;28;20386;-84
2021/09/07 01:55:42;;;;;;;28.75;23.95;;;14.40;99.90;;;;;;5112703;28;20477;-84
2021/09/07 01:58:08;;;;;;;26.48;23.27;;;14.40;99.90;;;;;;5112466;28;20421;-83
2021/09/07 02:00:34;;;;;;;25.90;23.02;;;14.30;99.90;;;;;;5094221;28;20391;-84
2021/09/07 02:03:00;;;;;;;29.08;24.50;;;14.30;99.90;;;;;;5094110;28;20482;-85
2021/09/07 02:05:26;;;;;;;28.00;23.50;;;14.20;99.90;;;;;;5112489;28;20470;-83
2021/09/07 02:07:52;;;;;;;29.52;25.88;;;14.20;99.90;;;;;;5111999;28;20722;-85
2021/09/07 02:10:19;;;;;;;28.10;23.87;;;14.20;99.90;;;;;;5112446;28;20903;-85
2021/09/07 02:12:45;;;;;;;29.25;24.30;;;14.10;99.90;;;;;;5112152;28;20399;-84
2021/09/07 02:15:11;;;;;;;26.33;23.20;;;14.10;99.90;;;;;;5093935;28;20902;-85
2021/09/07 02:17:37;;;;;;;29.80;25.20;;;14.10;99.90;;;;;;5112259;28;20371;-83
2021/09/07 02:20:03;;;;;;;28.38;24.85;;;14.00;99.90;;;;;;5111929;28;20371;-84
2021/09/07 02:22:29;;;;;;;27.55;23.70;;;14.00;99.90;;;;;;5111868;28;20390;-85
2021/09/07 02:24:55;;;;;;;27.02;23.13;;;13.90;99.90;;;;;;5111731;28;20363;-84
2021/09/07 02:27:20;;;;;;;29.13;24.80;;;13.90;99.90;;;;;;5111908;28;20465;-83
2021/09/07 02:29:46;;;;;;;28.17;24.63;;;13.80;99.90;;;;;;5111968;28;20737;-84
2021/09/07 02:32:12;;;;;;;30.73;25.17;;;13.80;99.90;;;;;;5111814;28;20375;-84
2021/09/07 02:34:38;;;;;;;28.15;24.58;;;13.80;99.90;;;;;;5111724;28;20423;-84
2021/09/07 02:37:04;;;;;;;29.63;24.90;;;13.70;99.90;;;;;;5093419;28;20375;-85
2021/09/07 02:39:29;;;;;;;34.30;28.17;;;13.70;99.90;;;;;;5111565;28;20952;-84
2021/09/07 02:41:55;;;;;;;35.50;28.43;;;13.60;99.90;;;;;;5093132;28;20911;-84
2021/09/07 02:44:21;;;;;;;32.08;26.83;;;13.60;99.90;;;;;;5111491;28;20718;-85
2021/09/07 02:46:47;;;;;;;35.30;27.57;;;13.60;99.90;;;;;;5110504;28;20394;-84
2021/09/07 02:49:13;;;;;;;32.47;26.08;;;13.60;99.90;;;;;;5111324;28;20378;-85
2021/09/07 02:51:39;;;;;;;31.23;25.27;;;13.50;99.90;;;;;;5111372;28;20373;-85
2021/09/07 02:54:05;;;;;;;31.63;25.47;;;13.50;99.90;;;;;;5092924;28;20759;-84
2021/09/07 02:56:31;;;;;;;30.87;24.53;;;13.40;99.90;;;;;;5111344;28;20366;-85
2021/09/07 02:58:56;;;;;;;29.97;26.20;;;13.30;99.90;;;;;;5111351;28;20367;-86
2021/09/07 03:01:22;;;;;;;29.85;25.88;;;13.30;99.90;;;;;;5092948;28;20447;-84
2021/09/07 03:03:48;;;;;;;32.38;25.70;;;13.20;99.90;;;;;;5111308;28;20371;-83
2021/09/07 03:06:13;;;;;;;32.37;26.93;;;13.20;99.90;;;;;;5111186;28;20382;-85
2021/09/07 03:08:39;;;;;;;30.25;25.77;;;13.20;99.90;;;;;;5111231;28;20371;-86
2021/09/07 03:11:05;;;;;;;31.20;24.93;;;13.10;99.90;;;;;;5092844;28;20410;-85
2021/09/07 03:13:30;;;;;;;31.90;25.07;;;13.10;99.90;;;;;;5111366;28;20371;-84
2021/09/07 03:15:56;;;;;;;29.03;24.20;;;13.00;99.90;;;;;;5092819;28;20363;-86
2021/09/07 03:18:22;;;;;;;30.40;24.08;;;12.90;99.90;;;;;;5093148;28;20410;-82
2021/09/07 03:20:47;;;;;;;30.50;25.13;;;12.90;99.90;;;;;;5110932;28;20387;-86
2021/09/07 03:23:13;;;;;;;31.60;25.57;;;12.90;99.90;;;;;;5092655;28;20431;-84
2021/09/07 03:25:38;;;;;;;29.63;24.80;;;12.80;99.90;;;;;;5115035;28;20371;-84
2021/09/07 03:28:04;;;;;;;30.80;24.47;;;12.80;99.90;;;;;;5114356;28;20454;-85
2021/09/07 03:30:30;;;;;;;32.13;26.15;;;12.80;99.90;;;;;;5115738;28;20367;-82
2021/09/07 03:32:55;;;;;;;28.10;24.40;;;12.70;99.90;;;;;;5111407;28;20375;-82
2021/09/07 03:35:21;;;;;;;30.53;24.60;;;12.70;99.90;;;;;;5112290;28;20371;-84
2021/09/07 03:37:47;;;;;;;28.92;24.05;;;12.70;99.90;;;;;;5111234;28;20406;-84
2021/09/07 03:40:13;;;;;;;27.73;24.13;;;12.60;99.90;;;;;;5111379;28;20379;-84
2021/09/07 03:42:40;;;;;;;29.90;24.48;;;12.60;99.90;;;;;;5093519;28;20907;-83
2021/09/07 03:45:08;;;;;;;30.23;24.67;;;12.60;99.90;;;;;;5093819;28;20903;-83
2021/09/07 03:47:34;;;;;;;27.90;22.40;;;12.50;99.90;;;;;;5093150;28;20396;-86
2021/09/07 03:49:59;;;;;;;25.40;21.70;;;12.50;99.90;;;;;;5112473;28;20788;-83
2021/09/07 03:52:25;;;;;;;26.53;23.60;;;12.50;99.90;;;;;;5095649;28;20786;-84
2021/09/07 03:54:51;;;;;;;26.05;22.63;;;12.50;99.90;;;;;;5096843;28;20401;-84
2021/09/07 03:57:16;;;;;;;28.73;23.50;;;12.50;99.90;;;;;;5115338;28;20367;-85
2021/09/07 03:59:42;;;;;;;28.80;24.13;;;12.50;99.90;;;;;;5100088;28;20443;-84
2021/09/07 04:02:07;;;;;;;27.38;22.05;;;12.50;99.90;;;;;;5119371;28;20386;-83
2021/09/07 04:04:33;;;;;;;24.10;21.07;;;12.50;99.90;;;;;;5120187;28;20381;-84
2021/09/07 04:06:59;;;;;;;26.15;21.77;;;12.40;99.90;;;;;;5122020;28;20940;-84
2021/09/07 04:09:25;;;;;;;24.90;21.05;;;12.40;99.90;;;;;;5121324;28;20415;-84
2021/09/07 04:11:51;;;;;;;24.83;22.20;;;12.40;99.90;;;;;;5120851;28;20460;-83
2021/09/07 04:14:17;;;;;;;27.73;22.23;;;12.40;99.90;;;;;;5120529;28;20990;-84
2021/09/07 04:16:43;;;;;;;29.38;22.40;;;12.40;99.90;;;;;;5102213;28;20473;-83
2021/09/07 04:19:09;;;;;;;26.95;23.33;;;12.40;99.90;;;;;;5102451;28;20379;-86
2021/09/07 04:21:34;;;;;;;28.23;23.67;;;12.40;99.90;;;;;;5121150;28;20406;-82
2021/09/07 04:24:00;;;;;;;26.67;22.48;;;12.40;99.90;;;;;;5103143;28;20401;-83
2021/09/07 04:26:26;;;;;;;25.30;22.07;;;12.50;99.90;;;;;;5120379;28;20457;-85
2021/09/07 04:28:53;;;;;;;25.63;22.35;;;12.50;99.90;;;;;;5120546;28;20381;-85
2021/09/07 04:31:18;;;;;;;24.73;21.98;;;12.60;99.90;;;;;;5121008;28;20398;-84
2021/09/07 04:33:44;;;;;;;22.50;20.10;;;12.60;99.90;;;;;;5102639;28;20374;-84
2021/09/07 04:36:10;;;;;;;26.42;21.55;;;12.60;99.90;;;;;;5101960;28;20892;-85
2021/09/07 04:38:37;;;;;;;29.07;22.77;;;12.60;99.90;;;;;;5119531;28;20373;-86
2021/09/07 04:41:03;;;;;;;28.52;23.95;;;12.70;99.90;;;;;;5100595;28;20471;-84
2021/09/07 04:43:28;;;;;;;30.48;22.50;;;12.70;99.90;;;;;;5119565;28;20375;-85
2021/09/07 04:45:55;;;;;;;27.33;21.98;;;12.70;99.90;;;;;;5101963;28;20371;-87
2021/09/07 04:48:21;;;;;;;28.70;22.52;;;12.70;99.90;;;;;;5113322;28;20388;-84
2021/09/07 04:50:47;;;;;;;26.37;21.77;;;12.80;99.90;;;;;;5117179;28;20458;-85
2021/09/07 04:53:14;;;;;;;29.13;21.75;;;12.80;99.90;;;;;;5115430;28;20472;-84
2021/09/07 04:55:39;;;;;;;29.60;22.75;;;12.90;99.90;;;;;;5095509;28;20379;-84
2021/09/07 04:58:05;;;;;;;31.27;23.15;;;12.90;99.90;;;;;;5113514;28;20481;-87
2021/09/07 05:00:30;;;;;;;30.47;22.30;;;12.80;99.90;;;;;;5095132;28;20439;-86
2021/09/07 05:02:56;;;;;;;29.40;22.10;;;12.80;99.90;;;;;;5113095;28;20385;-86
2021/09/07 05:05:22;;;;;;;34.87;23.60;;;12.80;99.90;;;;;;5089012;28;20420;-84
2021/09/07 05:07:47;;;;;;;48.80;25.23;;;12.80;99.90;;;;;;5114912;28;20428;-85
2021/09/07 05:10:13;;;;;;;47.72;22.70;;;12.90;99.90;;;;;;5095666;28;20371;-84
2021/09/07 05:12:40;;;;;;;40.50;22.23;;;12.90;99.90;;;;;;5094783;28;20378;-83
2021/09/07 05:15:07;;;;;;;31.02;23.50;;;13.00;99.90;;;;;;5112365;28;20379;-84
2021/09/07 05:17:34;;;;;;;28.13;23.23;;;13.00;99.90;;;;;;5112887;28;20375;-83
2021/09/07 05:20:03;;;;;;;29.30;23.20;;;13.00;99.90;;;;;;5112886;28;20375;-84
2021/09/07 05:22:29;;;;;;;30.05;25.13;;;13.10;99.90;;;;;;5113151;28;20391;-85
2021/09/07 05:24:55;;;;;;;31.35;24.67;;;13.20;99.90;;;;;;5093814;28;20375;-86
2021/09/07 05:27:21;;;;;;;25.95;22.23;;;13.30;99.90;;;;;;5113559;28;20385;-85
2021/09/07 05:29:46;;;;;;;26.63;23.77;;;13.40;99.90;;;;;;5114379;28;20428;-82
2021/09/07 05:32:13;;;;;;;30.67;24.00;;;13.40;99.90;;;;;;5114084;28;20407;-84
2021/09/07 05:34:39;;;;;;;26.83;23.75;;;13.50;99.90;;;;;;5113101;28;20379;-83
2021/09/07 05:37:05;;;;;;;24.50;21.90;;;13.60;99.90;;;;;;5093133;28;20382;-85
2021/09/07 05:39:30;;;;;;;30.70;26.65;;;13.70;99.90;;;;;;5094295;28;20407;-84
2021/09/07 05:41:56;;;;;;;28.77;25.40;;;13.70;99.90;;;;;;5112370;28;20398;-84
2021/09/07 05:44:22;;;;;;;28.60;25.20;;;13.80;99.90;;;;;;5112127;28;20371;-82
2021/09/07 05:46:49;;;;;;;32.50;27.40;;;13.80;99.90;;;;;;5111843;28;20940;-86
2021/09/07 05:49:15;;;;;;;35.40;27.20;;;13.90;99.90;;;;;;5109495;28;20375;-85
2021/09/07 05:51:41;;;;;;;31.80;26.60;;;13.90;99.90;;;;;;5094203;28;20462;-85
2021/09/07 05:54:07;;;;;;;27.83;24.40;;;14.00;99.90;;;;;;5092046;28;20394;-86
2021/09/07 05:56:33;;;;;;;28.02;24.00;;;14.10;99.90;;;;;;5111270;28;20864;-84
2021/09/07 05:58:59;;;;;;;30.17;26.67;;;14.20;99.90;;;;;;5111089;28;20756;-83
2021/09/07 06:01:25;;;;;;;35.67;27.58;;;14.40;99.90;;;;;;5111617;28;20399;-84
2021/09/07 06:03:51;;;;;;;34.73;26.27;;;14.40;99.90;;;;;;5112068;28;20366;-83
2021/09/07 06:06:16;;;;;;;39.67;28.37;;;14.60;99.90;;;;;;5111915;28;20371;-84
2021/09/07 06:08:42;;;;;;;33.35;27.50;;;14.70;99.90;;;;;;5111560;28;20758;-84
2021/09/07 06:11:09;;;;;;;36.20;28.20;;;14.90;99.90;;;;;;5112155;28;20427;-83
2021/09/07 06:13:34;;;;;;;36.15;28.05;;;15.00;99.90;;;;;;5093275;28;20375;-85
2021/09/07 06:16:01;;;;;;;33.78;28.27;;;15.20;99.90;;;;;;5111426;28;20387;-85
2021/09/07 06:18:27;;;;;;;33.08;27.42;;;15.30;99.90;;;;;;5112167;28;20375;-86
2021/09/07 06:20:53;;;;;;;33.67;28.63;;;15.40;99.90;;;;;;5110466;28;20395;-85
2021/09/07 06:23:18;;;;;;;31.27;27.98;;;15.60;99.90;;;;;;5109394;28;20387;-85
2021/09/07 06:25:44;;;;;;;31.08;26.90;;;15.70;99.90;;;;;;5110124;28;20432;-84
2021/09/07 06:28:10;;;;;;;32.00;27.07;;;15.90;99.90;;;;;;5091991;28;20385;-83
2021/09/07 06:30:36;;;;;;;30.48;26.30;;;16.00;99.90;;;;;;5111095;28;20925;-84
2021/09/07 06:33:03;;;;;;;29.40;24.90;;;16.10;99.90;;;;;;5086829;28;20390;-84
2021/09/07 06:35:29;;;;;;;29.10;25.80;;;16.30;99.90;;;;;;5103569;28;20473;-85
2021/09/07 06:37:55;;;;;;;27.95;24.50;;;16.50;99.90;;;;;;5108321;28;20461;-84
2021/09/07 06:40:21;;;;;;;28.30;24.47;;;16.60;99.90;;;;;;5111161;28;20462;-83
2021/09/07 06:42:49;;;;;;;29.55;24.20;;;16.80;99.90;;;;;;5093081;28;20398;-84
2021/09/07 06:45:15;;;;;;;28.75;24.05;;;16.90;99.90;;;;;;5092560;28;20454;-84
2021/09/07 06:47:41;;;;;;;29.00;23.77;;;17.10;99.90;;;;;;5092313;28;20395;-85
2021/09/07 06:50:07;;;;;;;28.63;24.63;;;17.10;99.90;;;;;;5099581;28;20448;-81
2021/09/07 06:52:33;;;;;;;29.83;24.55;;;17.00;99.90;;;;;;5115931;27;20436;-82
2021/09/07 06:55:00;;;;;;;27.88;24.42;;;17.00;99.90;;;;;;5120507;27;20383;-83
2021/09/07 06:57:27;;;;;;;29.73;23.63;;;17.10;99.90;;;;;;5092624;28;20379;-82
2021/09/07 06:59:53;;;;;;;33.20;23.00;;;17.20;99.90;;;;;;5093202;28;20410;-86
2021/09/07 07:02:19;;;;;;;28.63;23.50;;;17.50;99.90;;;;;;5092999;28;20916;-85
2021/09/07 07:04:45;;;;;;;27.38;22.77;;;17.60;99.90;;;;;;5094242;28;20358;-84
2021/09/07 07:07:11;;;;;;;26.80;21.90;;;17.80;99.90;;;;;;5093494;28;20366;-87
2021/09/07 07:09:37;;;;;;;25.98;21.80;;;17.90;99.90;;;;;;5111600;28;20528;-87
2021/09/07 07:12:03;;;;;;;27.27;21.23;;;18.20;99.90;;;;;;5111123;28;20497;-86
2021/09/07 07:14:29;;;;;;;23.90;21.02;;;18.20;99.90;;;;;;5111082;28;20379;-82
2021/09/07 07:16:55;;;;;;;25.23;20.23;;;18.30;99.90;;;;;;5091177;28;20425;-86
2021/09/07 07:19:21;;;;;;;26.53;20.73;;;18.40;99.90;;;;;;5109082;28;20554;-85
2021/09/07 07:21:49;;;;;;;25.58;20.27;;;18.20;99.90;;;;;;5112320;27;20455;-84
2021/09/07 07:24:16;;;;;;;25.13;20.17;;;18.10;99.90;;;;;;5109175;28;20431;-85
2021/09/07 07:26:43;;;;;;;22.83;19.65;;;18.10;99.90;;;;;;5108766;28;20781;-84
2021/09/07 07:29:12;;;;;;;24.40;19.23;;;18.20;99.90;;;;;;5108660;28;20424;-87
2021/09/07 07:31:38;;;;;;;24.33;19.30;;;18.40;99.90;;;;;;5093123;28;20907;-86
2021/09/07 07:34:04;;;;;;;25.02;18.77;;;18.50;99.90;;;;;;5090501;28;20383;-86
2021/09/07 07:36:29;;;;;;;24.87;19.53;;;18.70;99.90;;;;;;5111052;28;20424;-86
2021/09/07 07:38:55;;;;;;;21.42;18.55;;;18.80;99.90;;;;;;5110737;28;20374;-84
2021/09/07 07:41:20;;;;;;;23.67;18.80;;;18.80;99.90;;;;;;5089704;28;20493;-87
2021/09/07 07:43:47;;;;;;;23.30;18.40;;;18.70;99.90;;;;;;5110137;28;20375;-84
2021/09/07 07:46:14;;;;;;;21.47;17.70;;;18.80;99.90;;;;;;5092129;28;20391;-86
2021/09/07 07:48:43;;;;;;;23.25;18.52;;;18.80;99.90;;;;;;5111144;28;20371;-84
2021/09/07 07:51:09;;;;;;;24.10;18.67;;;19.00;99.90;;;;;;5092678;28;20387;-84
2021/09/07 07:53:35;;;;;;;21.80;17.10;;;19.00;99.90;;;;;;5110889;28;20387;-86
2021/09/07 07:56:01;;;;;;;22.58;16.60;;;19.10;99.90;;;;;;5093581;28;20393;-85
2021/09/07 07:58:27;;;;;;;27.88;17.95;;;19.20;99.90;;;;;;5092182;28;20449;-83
2021/09/07 08:00:53;;;;;;;46.53;18.80;;;19.40;99.90;;;;;;5110237;28;20896;-87
2021/09/07 08:03:18;;;;;;;21.45;16.95;;;19.40;99.90;;;;;;5092734;28;21827;-83
2021/09/07 08:05:44;;;;;;;19.93;15.77;;;19.60;99.90;;;;;;5108082;28;20377;-84
2021/09/07 08:08:10;;;;;;;19.83;15.32;;;19.70;99.90;;;;;;5110068;28;20371;-83
2021/09/07 08:10:35;;;;;;;20.23;15.90;;;19.90;99.90;;;;;;5093607;28;20383;-85
2021/09/07 08:13:01;;;;;;;18.85;14.77;;;20.00;99.90;;;;;;5110668;28;20374;-86
2021/09/07 08:15:27;;;;;;;20.92;14.98;;;20.20;99.90;;;;;;5112086;28;20865;-88
2021/09/07 08:17:53;;;;;;;19.47;14.90;;;20.40;99.90;;;;;;5112320;28;20869;-84
2021/09/07 08:20:18;;;;;;;21.17;15.02;;;20.50;99.90;;;;;;5112055;28;20726;-83
2021/09/07 08:22:44;;;;;;;19.07;15.03;;;20.50;99.90;;;;;;5093287;28;20401;-85
2021/09/07 08:25:11;;;;;;;20.58;14.68;;;20.40;99.90;;;;;;5110197;28;20496;-87
2021/09/07 08:27:37;;;;;;;21.70;15.60;;;20.50;99.90;;;;;;5111858;28;20378;-84
2021/09/07 08:30:04;;;;;;;16.38;14.18;;;20.40;99.90;;;;;;5094671;28;20367;-84
2021/09/07 08:32:30;;;;;;;18.20;14.80;;;20.60;99.90;;;;;;5095453;28;20378;-85
2021/09/07 08:34:56;;;;;;;20.38;15.18;;;20.90;99.90;;;;;;5111874;28;20457;-82
2021/09/07 08:37:22;;;;;;;19.50;15.05;;;20.90;99.90;;;;;;5094138;28;20407;-84
2021/09/07 08:39:47;;;;;;;20.30;15.80;;;20.90;99.90;;;;;;5091587;28;20379;-87
2021/09/07 08:42:13;;;;;;;21.92;16.73;;;21.10;99.90;;;;;;5093807;28;20441;-86
2021/09/07 08:44:47;;;;;;;19.47;15.77;;;21.10;99.90;;;;;;5115466;27;20382;-84
2021/09/07 08:47:15;;;;;;;20.77;16.43;;;21.20;99.90;;;;;;5115009;27;20698;-83
2021/09/07 08:49:43;;;;;;;18.55;15.75;;;21.10;99.90;;;;;;5096757;28;20390;-85
2021/09/07 08:52:11;;;;;;;21.38;17.35;;;21.00;99.90;;;;;;5115317;28;20412;-87
2021/09/07 08:54:36;;;;;;;21.40;16.27;;;20.80;99.90;;;;;;5097821;28;20385;-85
2021/09/07 08:57:02;;;;;;;24.77;16.20;;;20.90;99.90;;;;;;5096887;28;20362;-86
2021/09/07 08:59:29;;;;;;;23.40;16.65;;;20.80;99.90;;;;;;5116316;28;20856;-84
2021/09/07 09:01:56;;;;;;;22.50;18.00;;;20.90;99.90;;;;;;5114572;28;20394;-87
2021/09/07 09:04:27;;;;;;;21.38;16.23;;;20.90;99.90;;;;;;5116093;28;20383;-84
2021/09/07 09:06:53;;;;;;;21.48;17.33;;;20.90;99.90;;;;;;5092583;28;20465;-82
2021/09/07 09:09:19;;;;;;;20.63;16.65;;;20.90;99.90;;;;;;5112766;28;20377;-85
2021/09/07 09:11:56;;;;;;;22.47;16.60;;;20.90;99.90;;;;;;5118524;27;20382;-84
2021/09/07 09:14:41;;;;;;;19.90;15.95;;;21.10;99.90;;;;;;5117296;28;20780;-86
2021/09/07 09:17:24;;;;;;;21.38;15.65;;;21.20;99.90;;;;;;5112412;28;20714;-83
2021/09/07 09:19:54;;;;;;;21.65;15.48;;;21.50;99.90;;;;;;5097055;28;20461;-85
2021/09/07 09:22:20;;;;;;;18.73;14.73;;;21.70;99.90;;;;;;5115796;28;20410;-82
2021/09/07 09:24:46;;;;;;;22.35;16.95;;;21.80;99.90;;;;;;5093755;28;20367;-87
2021/09/07 09:27:12;;;;;;;22.03;15.93;;;21.80;99.90;;;;;;5115499;28;20359;-87
2021/09/07 09:29:43;;;;;;;20.42;16.17;;;21.80;99.90;;;;;;5114529;28;20378;-84
2021/09/07 09:32:16;;;;;;;24.95;17.58;;;21.90;99.90;;;;;;5111374;28;20382;-84
2021/09/07 09:34:42;;;;;;;24.20;16.63;;;21.80;99.90;;;;;;5096034;28;20384;-82
2021/09/07 09:37:09;;;;;;;19.38;16.27;;;21.70;99.90;;;;;;5114571;28;20526;-84
2021/09/07 09:39:50;;;;;;;18.98;16.30;;;21.90;99.90;;;;;;5096105;28;20379;-84
2021/09/07 09:42:29;;;;;;;20.47;15.40;;;22.00;99.90;;;;;;5113423;28;20400;-86
2021/09/07 09:45:08;;;;;;;22.92;15.82;;;21.90;99.90;;;;;;5095659;28;20394;-86
2021/09/07 09:47:34;;;;;;;21.50;15.63;;;21.70;99.90;;;;;;5093626;28;20439;-83
2021/09/07 09:50:01;;;;;;;22.05;15.65;;;21.80;99.90;;;;;;5117500;28;20374;-84
2021/09/07 09:52:27;;;;;;;18.80;14.68;;;21.80;99.90;;;;;;5076183;28;20391;-85
2021/09/07 09:54:54;;;;;;;19.23;14.00;;;21.70;99.90;;;;;;5116566;27;20371;-85
2021/09/07 09:57:21;;;;;;;19.45;13.07;;;22.00;99.90;;;;;;5096875;28;20493;-86
2021/09/07 09:59:48;;;;;;;17.17;13.23;;;22.50;99.90;;;;;;5110739;28;20382;-84
2021/09/07 10:02:13;;;;;;;16.77;12.48;;;23.00;99.90;;;;;;5112740;28;20398;-85
2021/09/07 10:04:40;;;;;;;16.02;13.18;;;23.50;99.90;;;;;;5094756;28;20377;-87
2021/09/07 10:07:07;;;;;;;17.77;13.73;;;23.70;99.90;;;;;;5096515;28;20440;-87
2021/09/07 10:09:33;;;;;;;16.05;13.00;;;23.30;99.90;;;;;;5096857;28;20355;-90
2021/09/07 10:12:19;;;;;;;16.00;13.30;;;23.30;99.90;;;;;;5093734;27;20795;-85
2021/09/07 10:15:11;;;;;;;18.25;13.05;;;23.10;99.90;;;;;;5093553;28;20463;-85
2021/09/07 10:17:43;;;;;;;15.18;12.27;;;23.00;99.90;;;;;;5094648;28;20398;-87
2021/09/07 10:25:47;;;;;;;17.00;12.75;;;22.50;99.90;;;;;;5113367;28;20424;-86
2021/09/07 10:28:27;;;;;;;15.02;12.77;;;22.60;99.90;;;;;;5094435;28;20405;-84
2021/09/07 10:31:04;;;;;;;15.27;11.32;;;22.60;99.90;;;;;;5111803;27;20429;-82
2021/09/07 10:33:52;;;;;;;19.83;12.50;;;22.90;99.90;;;;;;5094133;28;20382;-82
2021/09/07 10:36:24;;;;;;;15.15;11.00;;;23.30;99.90;;;;;;5095025;28;20391;-87
2021/09/07 10:38:56;;;;;;;16.00;11.83;;;23.80;99.90;;;;;;5093065;28;20385;-85
2021/09/07 10:41:45;;;;;;;15.55;11.05;;;23.80;99.90;;;;;;5112421;28;20430;-85
2021/09/07 10:44:24;;;;;;;15.43;11.45;;;23.50;99.90;;;;;;5102149;28;20379;-89
2021/09/07 10:46:56;;;;;;;13.20;11.25;;;23.00;99.90;;;;;;5091460;28;20464;-87
2021/09/07 10:49:32;;;;;;;14.07;11.38;;;22.40;99.90;;;;;;5094496;28;20886;-85
2021/09/07 10:52:14;;;;;;;13.48;10.57;;;22.30;99.90;;;;;;5094765;28;20389;-82
2021/09/07 10:55:07;;;;;;;15.85;10.95;;;22.50;99.90;;;;;;5094488;28;21452;-87
2021/09/07 10:57:35;;;;;;;13.25;10.43;;;22.90;99.90;;;;;;5094101;28;20390;-85
2021/09/07 11:00:16;;;;;;;13.07;10.40;;;23.20;99.90;;;;;;5111500;28;20374;-87
2021/09/07 11:02:43;;;;;;;12.45;10.27;;;23.00;99.90;;;;;;5114455;28;20497;-84
2021/09/07 11:05:10;;;;;;;15.63;10.85;;;22.70;99.90;;;;;;5114745;28;20379;-85
2021/09/07 11:07:40;;;;;;;13.32;10.63;;;22.70;99.90;;;;;;5112452;28;20371;-85
2021/09/07 11:10:25;;;;;;;13.18;10.10;;;22.70;99.90;;;;;;5112907;28;20374;-84
2021/09/07 11:12:53;;;;;;;14.35;11.52;;;22.70;99.90;;;;;;5110519;28;20367;-86
2021/09/07 11:15:24;;;;;;;12.98;11.40;;;22.60;99.90;;;;;;5113628;28;20587;-89
2021/09/07 11:18:05;;;;;;;13.45;10.75;;;22.40;99.90;;;;;;5093705;28;20423;-87
2021/09/07 11:20:33;;;;;;;12.73;10.65;;;22.40;99.90;;;;;;5109716;28;20868;-84
2021/09/07 11:23:25;;;;;;;14.07;11.23;;;22.40;99.90;;;;;;5093126;28;20891;-85
2021/09/07 11:26:05;;;;;;;16.00;11.60;;;22.60;99.90;;;;;;5092473;28;20386;-85
2021/09/07 11:29:00;;;;;;;15.10;11.98;;;22.40;99.90;;;;;;5092243;28;20733;-87
2021/09/07 11:31:41;;;;;;;15.65;12.18;;;22.10;99.90;;;;;;5091596;28;20391;-85
2021/09/07 11:34:31;;;;;;;13.55;11.95;;;21.90;99.90;;;;;;5096222;28;20379;-89
2021/09/07 11:37:20;;;;;;;12.80;11.10;;;22.00;99.90;;;;;;5092336;28;20383;-87
2021/09/07 11:40:07;;;;;;;13.50;11.70;;;22.30;99.90;;;;;;5095252;28;20856;-85
2021/09/07 11:42:46;;;;;;;12.23;10.93;;;22.70;99.90;;;;;;5094906;28;20425;-85
2021/09/07 11:45:27;;;;;;;13.77;10.02;;;23.00;99.90;;;;;;5101115;28;20383;-83
2021/09/07 11:47:58;;;;;;;12.65;10.57;;;23.20;99.90;;;;;;5101077;28;20413;-87
2021/09/07 11:50:27;;;;;;;11.55;9.77;;;22.70;99.90;;;;;;5093775;28;20469;-85
2021/09/07 11:52:54;;;;;;;12.40;10.60;;;22.50;99.90;;;;;;5112244;28;20840;-87
2021/09/07 11:55:45;;;;;;;13.60;10.50;;;22.40;99.90;;;;;;5113662;28;20378;-90
2021/09/07 11:58:29;;;;;;;13.63;10.90;;;22.10;99.90;;;;;;5112194;28;20401;-87
2021/09/07 12:01:08;;;;;;;12.80;10.38;;;22.20;99.90;;;;;;5092559;28;20876;-85
2021/09/07 12:03:39;;;;;;;12.23;10.13;;;22.30;99.90;;;;;;5108969;28;20394;-83
2021/09/07 12:06:07;;;;;;;12.80;10.55;;;22.50;99.90;;;;;;5089365;28;20469;-86
2021/09/07 12:08:41;;;;;;;12.30;9.98;;;22.40;99.90;;;;;;5111415;28;20386;-87
2021/09/07 12:11:13;;;;;;;13.30;10.73;;;22.30;99.90;;;;;;5110160;28;20886;-83
2021/09/07 12:13:42;;;;;;;12.18;10.55;;;22.10;99.90;;;;;;5095418;28;20451;-87
2021/09/07 12:16:08;;;;;;;13.83;9.73;;;22.10;99.90;;;;;;5092073;28;20366;-87
2021/09/07 12:18:40;;;;;;;10.80;9.05;;;22.50;99.90;;;;;;5096088;28;20382;-84
2021/09/07 12:21:15;;;;;;;13.70;10.13;;;23.00;99.90;;;;;;5094944;28;20413;-83
2021/09/07 12:23:44;;;;;;;13.13;10.10;;;23.20;99.90;;;;;;5114292;28;20893;-84
2021/09/07 12:26:10;;;;;;;11.15;9.55;;;23.20;99.90;;;;;;5095711;28;20394;-84
2021/09/07 12:28:37;;;;;;;13.35;10.02;;;23.10;99.90;;;;;;5115451;28;20395;-85
2021/09/07 12:31:10;;;;;;;12.40;9.05;;;23.10;99.90;;;;;;5096681;28;20924;-86
2021/09/07 12:33:44;;;;;;;14.23;9.65;;;23.30;99.90;;;;;;5097791;28;20371;-81
2021/09/07 12:36:10;;;;;;;11.60;9.80;;;23.50;99.90;;;;;;5094323;28;20382;-81
2021/09/07 12:38:37;;;;;;;15.35;9.25;;;23.30;99.90;;;;;;5115643;28;20370;-83